Time;durP1;ratioP1;P1;durP2;ratioP2;P2;SDS_P1;SDS_P2;PMS_P1;PMS_P2;Temp;Humidity;BMP_temperature;BMP_pressure;BME280_temperature;BME280_humidity;BME280_pressure;Samples;Min_cycle;Max_cycle;Signal;HPM_P1;HPM_P2
2023/09/03 00:00:48;;;;;;;12.55;8.38;;;;;;;16.08;79.28;102611.75;7394277;19;20019;-64
2023/09/03 00:03:16;;;;;;;13.07;8.15;;;;;;;16.12;79.04;102629.31;7395748;19;20034;-63
2023/09/03 00:05:51;;;;;;;14.40;8.38;;;;;;;16.12;78.82;102634.66;7394393;19;20022;-63
2023/09/03 00:08:18;;;;;;;12.20;8.07;;;;;;;16.12;78.67;102636.47;7396495;19;20100;-64
2023/09/03 00:10:53;;;;;;;13.02;8.55;;;;;;;16.22;78.32;102646.44;7395829;19;20352;-63
2023/09/03 00:13:21;;;;;;;13.32;8.68;;;;;;;16.14;78.70;102648.78;7393495;19;20014;-63
2023/09/03 00:15:48;;;;;;;12.32;8.40;;;;;;;16.17;78.55;102653.03;7395015;19;20487;-63
2023/09/03 00:18:16;;;;;;;12.85;7.63;;;;;;;16.08;78.85;102654.53;7396296;19;20034;-63
2023/09/03 00:21:02;;;;;;;14.43;8.50;;;;;;;16.12;78.49;102653.38;7396615;19;20017;-62
2023/09/03 00:23:31;;;;;;;11.52;8.23;;;;;;;15.84;78.94;102641.84;7394776;19;20043;-63
2023/09/03 00:26:00;;;;;;;11.82;8.00;;;;;;;15.73;79.57;102625.66;7396060;19;20022;-63
2023/09/03 00:28:28;;;;;;;12.95;8.75;;;;;;;15.82;79.21;102624.19;7395057;19;20022;-63
2023/09/03 00:30:59;;;;;;;12.70;7.93;;;;;;;15.74;79.52;102630.03;7395446;19;20011;-63
2023/09/03 00:33:28;;;;;;;13.43;8.55;;;;;;;15.71;79.30;102627.56;7394383;19;20022;-63
2023/09/03 00:35:55;;;;;;;12.98;8.95;;;;;;;15.80;78.71;102618.09;7395666;19;20046;-63
2023/09/03 00:38:23;;;;;;;11.93;8.20;;;;;;;15.77;78.52;102616.47;7395929;19;20029;-63
2023/09/03 00:40:50;;;;;;;12.32;9.07;;;;;;;15.66;79.09;102612.78;7394272;19;20019;-63
2023/09/03 00:43:17;;;;;;;12.68;8.35;;;;;;;15.65;78.97;102611.06;7393809;19;20022;-63
2023/09/03 00:45:46;;;;;;;12.68;8.20;;;;;;;15.51;79.65;102615.47;7395598;19;20023;-63
2023/09/03 00:48:18;;;;;;;11.02;7.57;;;;;;;15.60;79.35;102627.34;7394437;19;20073;-63
2023/09/03 00:50:48;;;;;;;12.82;8.15;;;;;;;15.48;79.79;102629.00;7395378;19;20023;-62
2023/09/03 00:53:17;;;;;;;10.38;6.88;;;;;;;15.62;79.06;102628.13;7394737;19;20382;-62
2023/09/03 00:55:45;;;;;;;13.10;7.75;;;;;;;15.72;78.62;102636.41;7391714;19;20028;-62
2023/09/03 00:58:13;;;;;;;12.40;8.48;;;;;;;15.66;78.35;102639.50;7397433;19;20014;-62
2023/09/03 01:00:41;;;;;;;12.00;7.68;;;;;;;15.58;79.31;102653.31;7396664;19;20006;-63
2023/09/03 01:03:09;;;;;;;11.52;8.25;;;;;;;15.69;78.67;102655.34;7393011;19;20356;-62
2023/09/03 01:05:36;;;;;;;10.45;7.50;;;;;;;15.67;78.44;102655.41;7394806;19;20018;-62
2023/09/03 01:08:04;;;;;;;11.95;8.10;;;;;;;15.78;78.43;102644.91;7394997;19;20050;-62
2023/09/03 01:10:51;;;;;;;13.15;8.13;;;;;;;15.94;78.18;102646.56;7395041;19;20198;-62
2023/09/03 01:13:28;;;;;;;11.30;7.70;;;;;;;15.98;78.12;102654.25;7394379;19;20018;-63
2023/09/03 01:16:00;;;;;;;12.00;7.50;;;;;;;15.96;78.25;102656.19;7394089;19;20514;-63
2023/09/03 01:18:29;;;;;;;13.57;7.78;;;;;;;15.97;78.16;102667.75;7391562;19;20130;-63
2023/09/03 01:21:09;;;;;;;12.23;8.10;;;;;;;16.00;78.13;102652.38;7390736;19;20033;-63
2023/09/03 01:23:50;;;;;;;12.55;7.85;;;;;;;15.92;78.41;102646.69;7389181;19;20036;-63
2023/09/03 01:26:35;;;;;;;11.38;7.93;;;;;;;15.92;78.41;102643.16;7390703;19;20015;-63
2023/09/03 01:29:04;;;;;;;13.75;8.32;;;;;;;15.93;78.31;102631.50;7394284;19;20495;-63
2023/09/03 01:31:31;;;;;;;12.05;7.68;;;;;;;15.91;78.30;102622.72;7391405;19;20479;-63
2023/09/03 01:34:03;;;;;;;11.13;7.70;;;;;;;15.92;78.45;102627.13;7390481;19;20022;-63
2023/09/03 01:36:34;;;;;;;13.07;8.07;;;;;;;15.88;78.71;102626.47;7393715;19;20025;-63
2023/09/03 01:39:02;;;;;;;12.30;7.32;;;;;;;15.82;78.43;102625.03;7394294;19;20078;-63
2023/09/03 01:41:34;;;;;;;11.82;7.88;;;;;;;15.89;78.25;102621.97;7393970;19;20037;-63
2023/09/03 01:44:09;;;;;;;14.02;7.90;;;;;;;15.75;78.69;102617.53;7392870;19;20022;-63
2023/09/03 01:46:49;;;;;;;12.68;8.27;;;;;;;15.64;79.15;102609.31;7392673;19;20388;-63
2023/09/03 01:49:32;;;;;;;13.15;8.40;;;;;;;15.66;79.00;102599.44;7394500;19;20833;-64
2023/09/03 01:52:35;;;;;;;11.18;7.70;;;;;;;15.58;79.34;102600.78;7392486;19;20372;-64
2023/09/03 01:55:08;;;;;;;13.00;8.13;;;;;;;15.55;79.45;102594.75;7394116;19;20034;-63
2023/09/03 01:58:05;;;;;;;18.57;10.23;;;;;;;15.71;79.11;102600.00;7394480;19;20018;-63
2023/09/03 02:00:33;;;;;;;15.50;9.23;;;;;;;15.69;79.43;102600.09;7392792;19;20085;-63
2023/09/03 02:03:02;;;;;;;18.10;10.38;;;;;;;15.62;79.29;102596.09;7391884;19;20042;-64
2023/09/03 02:05:29;;;;;;;15.63;9.32;;;;;;;15.55;79.51;102586.75;7391956;19;20015;-64
2023/09/03 02:07:57;;;;;;;13.65;8.90;;;;;;;15.56;79.55;102588.47;7393884;19;20423;-64
2023/09/03 02:10:24;;;;;;;14.55;9.48;;;;;;;15.50;79.52;102581.72;7396483;19;20029;-64
2023/09/03 02:12:51;;;;;;;14.82;8.90;;;;;;;15.62;79.40;102582.72;7394113;19;20035;-64
2023/09/03 02:15:19;;;;;;;13.30;8.02;;;;;;;15.68;79.22;102585.03;7397392;19;20022;-63
2023/09/03 02:17:46;;;;;;;14.32;9.07;;;;;;;15.73;78.82;102584.72;7393575;19;20019;-63
2023/09/03 02:20:15;;;;;;;14.57;8.68;;;;;;;15.63;79.10;102586.25;7396671;19;20349;-64
2023/09/03 02:22:42;;;;;;;11.60;8.05;;;;;;;15.63;79.19;102581.75;7391556;19;20033;-63
2023/09/03 02:25:09;;;;;;;16.10;8.95;;;;;;;15.62;79.14;102582.72;7392591;19;20395;-63
2023/09/03 02:27:37;;;;;;;11.63;8.88;;;;;;;15.64;78.92;102582.63;7392034;19;20018;-63
2023/09/03 02:30:05;;;;;;;14.15;8.95;;;;;;;15.60;79.23;102584.63;7390395;19;20050;-63
2023/09/03 02:32:32;;;;;;;13.88;9.63;;;;;;;15.59;78.95;102575.75;7390645;19;20345;-63
2023/09/03 02:35:00;;;;;;;13.77;9.18;;;;;;;15.64;79.12;102588.81;7391717;19;20536;-63
2023/09/03 02:37:28;;;;;;;13.48;9.60;;;;;;;15.61;78.94;102602.38;7392284;19;20023;-63
2023/09/03 02:39:55;;;;;;;12.45;8.80;;;;;;;15.60;79.08;102601.50;7391529;19;20025;-63
2023/09/03 02:42:24;;;;;;;12.77;8.75;;;;;;;15.60;79.07;102603.31;7392190;19;20019;-63
2023/09/03 02:44:51;;;;;;;11.07;8.55;;;;;;;15.67;79.11;102614.50;7389457;19;20499;-63
2023/09/03 02:47:19;;;;;;;13.27;8.30;;;;;;;15.69;78.91;102624.13;7391136;19;20352;-64
2023/09/03 02:49:46;;;;;;;14.40;7.25;;;;;;;15.62;79.18;102625.47;7390552;19;20057;-64
2023/09/03 02:52:14;;;;;;;14.05;7.85;;;;;;;15.65;79.00;102632.44;7387098;19;20019;-63
2023/09/03 02:54:42;;;;;;;12.15;8.48;;;;;;;15.56;79.34;102637.38;7389374;19;20368;-63
2023/09/03 02:57:09;;;;;;;12.57;8.02;;;;;;;15.52;79.29;102637.69;7390050;19;20019;-63
2023/09/03 02:59:36;;;;;;;11.23;7.18;;;;;;;15.56;79.02;102642.72;7390576;19;20153;-63
2023/09/03 03:02:04;;;;;;;11.68;7.63;;;;;;;15.53;79.40;102644.72;7389704;19;20022;-64
2023/09/03 03:04:31;;;;;;;12.52;8.75;;;;;;;15.56;79.02;102647.22;7389110;19;20363;-63
2023/09/03 03:06:59;;;;;;;12.23;7.70;;;;;;;15.51;79.06;102662.69;7390914;19;20022;-63
2023/09/03 03:09:26;;;;;;;11.95;7.78;;;;;;;15.47;79.13;102658.50;7390934;19;20033;-63
2023/09/03 03:11:54;;;;;;;10.98;7.60;;;;;;;15.48;78.95;102658.38;7390227;19;20355;-62
2023/09/03 03:14:21;;;;;;;11.93;7.65;;;;;;;15.41;78.60;102653.53;7387666;19;20035;-62
2023/09/03 03:16:48;;;;;;;12.20;7.85;;;;;;;15.21;79.48;102655.66;7390515;19;20393;-62
2023/09/03 03:19:16;;;;;;;11.73;8.23;;;;;;;15.09;80.03;102656.44;7389421;19;20341;-62
2023/09/03 03:21:43;;;;;;;12.85;8.23;;;;;;;15.26;79.45;102653.56;7391010;19;20022;-62
2023/09/03 03:24:10;;;;;;;11.88;8.45;;;;;;;15.34;78.59;102659.28;7389325;19;20026;-63
2023/09/03 03:26:38;;;;;;;12.52;8.77;;;;;;;15.15;79.28;102661.41;7390779;19;20022;-63
2023/09/03 03:29:07;;;;;;;12.98;9.27;;;;;;;15.14;79.53;102657.00;7390689;19;20104;-63
2023/09/03 03:31:35;;;;;;;15.77;9.90;;;;;;;15.05;79.82;102665.59;7388723;19;20032;-63
2023/09/03 03:34:05;;;;;;;15.00;9.27;;;;;;;14.94;80.30;102665.38;7386478;19;20018;-63
2023/09/03 03:36:33;;;;;;;13.23;9.15;;;;;;;14.95;80.54;102675.09;7390155;19;20417;-63
2023/09/03 03:39:00;;;;;;;15.25;9.48;;;;;;;15.02;80.02;102673.78;7388812;19;20022;-62
2023/09/03 03:41:28;;;;;;;14.98;9.43;;;;;;;15.03;80.00;102668.34;7388974;19;20408;-63
2023/09/03 03:43:56;;;;;;;16.33;10.00;;;;;;;15.03;79.93;102656.78;7386928;19;20011;-63
2023/09/03 03:46:23;;;;;;;14.35;10.23;;;;;;;15.10;79.94;102656.31;7390169;19;20098;-62
2023/09/03 03:48:50;;;;;;;14.60;10.15;;;;;;;15.14;79.62;102651.66;7389980;19;20018;-62
2023/09/03 03:51:18;;;;;;;16.73;9.85;;;;;;;15.23;79.48;102640.41;7390418;19;20049;-64
2023/09/03 03:53:46;;;;;;;15.77;9.70;;;;;;;15.32;78.95;102638.97;7387448;19;20039;-63
2023/09/03 03:56:13;;;;;;;15.10;9.82;;;;;;;15.36;78.79;102640.47;7387890;19;20018;-62
2023/09/03 03:58:42;;;;;;;13.18;9.27;;;;;;;15.27;79.00;102643.75;7390232;19;20033;-62
2023/09/03 04:01:15;;;;;;;15.27;9.75;;;;;;;15.20;79.52;102639.75;7388733;19;20018;-64
2023/09/03 04:03:51;;;;;;;15.18;10.77;;;;;;;15.12;79.98;102648.25;7387795;19;20018;-63
2023/09/03 04:06:19;;;;;;;15.55;10.77;;;;;;;15.01;80.37;102656.91;7390116;19;20035;-63
2023/09/03 04:08:47;;;;;;;18.08;10.15;;;;;;;15.13;80.00;102655.28;7389758;19;20022;-63
2023/09/03 04:11:20;;;;;;;15.43;10.50;;;;;;;15.04;79.93;102655.88;7390235;19;20376;-62
2023/09/03 04:13:48;;;;;;;13.65;9.10;;;;;;;15.08;79.84;102671.59;7387496;19;20142;-62
2023/09/03 04:16:17;;;;;;;15.45;9.38;;;;;;;15.14;79.31;102670.34;7389597;19;20027;-63
2023/09/03 04:18:45;;;;;;;14.23;8.32;;;;;;;15.15;79.83;102665.84;7388329;19;20014;-63
2023/09/03 04:21:13;;;;;;;14.45;8.55;;;;;;;15.18;79.80;102673.66;7389380;19;20019;-63
2023/09/03 04:23:41;;;;;;;12.35;8.85;;;;;;;15.25;79.48;102685.69;7386434;19;20019;-64
2023/09/03 04:26:09;;;;;;;13.40;8.45;;;;;;;15.20;79.57;102683.31;7392489;19;20022;-63
2023/09/03 04:28:37;;;;;;;11.38;7.75;;;;;;;15.17;79.61;102688.84;7389578;19;20018;-63
2023/09/03 04:31:05;;;;;;;12.48;7.65;;;;;;;15.23;79.73;102698.28;7396820;19;20467;-64
2023/09/03 04:33:34;;;;;;;13.27;8.43;;;;;;;15.35;79.78;102708.19;7393647;19;20500;-63
2023/09/03 04:36:02;;;;;;;13.40;8.68;;;;;;;15.40;79.48;102707.91;7396083;19;20018;-63
2023/09/03 04:38:30;;;;;;;12.10;8.27;;;;;;;15.33;79.66;102728.78;7395973;19;20025;-63
2023/09/03 04:41:03;;;;;;;11.57;8.63;;;;;;;15.46;79.47;102732.41;7396285;19;20021;-63
2023/09/03 04:43:32;;;;;;;13.43;8.82;;;;;;;15.39;79.13;102738.22;7393949;19;20021;-63
2023/09/03 04:45:59;;;;;;;11.07;7.40;;;;;;;15.41;79.02;102742.50;7395017;19;20066;-63
2023/09/03 04:48:27;;;;;;;13.07;7.93;;;;;;;15.44;78.68;102746.81;7394588;19;20025;-63
2023/09/03 04:50:57;;;;;;;13.57;8.75;;;;;;;15.38;78.94;102747.16;7395726;19;20356;-63
2023/09/03 04:53:24;;;;;;;12.77;8.35;;;;;;;15.41;79.08;102746.97;7392890;19;20023;-63
2023/09/03 04:55:52;;;;;;;15.48;9.25;;;;;;;15.16;79.94;102748.50;7395313;19;20476;-64
2023/09/03 04:58:19;;;;;;;12.90;8.45;;;;;;;15.23;80.22;102751.66;7395994;19;20015;-64
2023/09/03 05:00:47;;;;;;;12.70;8.50;;;;;;;15.17;80.14;102754.69;7395711;19;20031;-64
2023/09/03 05:03:14;;;;;;;14.02;8.95;;;;;;;15.06;80.85;102752.69;7394170;19;20014;-63
2023/09/03 05:05:43;;;;;;;13.63;9.63;;;;;;;15.06;80.76;102758.00;7395589;19;20018;-64
2023/09/03 05:08:10;;;;;;;13.10;8.85;;;;;;;15.03;81.11;102761.75;7394139;19;20616;-65
2023/09/03 05:10:38;;;;;;;16.30;9.38;;;;;;;15.01;81.52;102766.31;7395092;19;20014;-63
2023/09/03 05:13:05;;;;;;;13.02;8.70;;;;;;;15.02;81.28;102768.00;7391368;19;20502;-64
2023/09/03 05:15:33;;;;;;;14.60;9.40;;;;;;;15.01;81.33;102778.78;7394879;19;20376;-64
2023/09/03 05:18:01;;;;;;;13.88;8.73;;;;;;;15.02;81.36;102767.16;7393824;19;20018;-64
2023/09/03 05:20:29;;;;;;;14.15;10.38;;;;;;;15.02;81.63;102761.81;7397134;19;20416;-64
2023/09/03 05:22:56;;;;;;;11.77;8.27;;;;;;;15.09;81.27;102764.03;7397055;19;20518;-64
2023/09/03 05:25:24;;;;;;;15.20;9.93;;;;;;;15.13;81.24;102767.38;7397336;19;20443;-64
2023/09/03 05:27:51;;;;;;;13.70;9.70;;;;;;;15.15;81.17;102767.25;7395718;19;20010;-63
2023/09/03 05:30:19;;;;;;;14.73;10.75;;;;;;;15.19;81.05;102767.00;7397573;19;20022;-64
2023/09/03 05:32:47;;;;;;;13.20;9.73;;;;;;;15.39;80.54;102776.47;7394358;19;20044;-64
2023/09/03 05:35:14;;;;;;;15.60;10.20;;;;;;;15.51;80.12;102782.84;7395502;19;20507;-64
2023/09/03 05:37:42;;;;;;;14.30;9.10;;;;;;;15.58;79.95;102774.38;7397030;19;20014;-63
2023/09/03 05:40:10;;;;;;;14.77;9.43;;;;;;;15.59;80.19;102765.38;7393496;19;20018;-64
2023/09/03 05:42:37;;;;;;;17.52;11.85;;;;;;;15.59;80.08;102772.53;7394956;19;20019;-63
2023/09/03 05:45:05;;;;;;;17.10;11.07;;;;;;;15.60;80.11;102780.44;7393496;19;20050;-63
2023/09/03 05:47:33;;;;;;;16.08;11.60;;;;;;;15.65;80.28;102785.56;7392602;19;20377;-63
2023/09/03 05:50:00;;;;;;;16.42;11.82;;;;;;;15.73;79.89;102788.59;7397286;19;20011;-64
2023/09/03 05:52:28;;;;;;;16.77;10.40;;;;;;;15.70;79.70;102790.59;7396923;19;20038;-63
2023/09/03 05:54:55;;;;;;;15.52;9.60;;;;;;;15.71;79.74;102779.81;7392785;19;20016;-63
2023/09/03 05:57:23;;;;;;;11.88;7.97;;;;;;;15.72;79.69;102770.88;7393348;19;20014;-63
2023/09/03 05:59:51;;;;;;;11.52;7.93;;;;;;;15.73;79.37;102775.25;7392982;19;20096;-63
2023/09/03 06:02:18;;;;;;;11.60;7.45;;;;;;;15.73;79.27;102777.91;7391689;19;20030;-63
2023/09/03 06:04:48;;;;;;;12.48;7.68;;;;;;;15.72;79.25;102786.00;7391066;19;20033;-63
2023/09/03 06:07:16;;;;;;;11.68;6.85;;;;;;;15.74;79.06;102779.63;7393859;19;20088;-63
2023/09/03 06:09:45;;;;;;;11.63;7.32;;;;;;;15.80;79.08;102789.09;7395025;19;20046;-63
2023/09/03 06:12:13;;;;;;;13.05;7.60;;;;;;;15.85;78.82;102778.94;7392743;19;20480;-63
2023/09/03 06:14:41;;;;;;;10.93;6.93;;;;;;;15.91;78.76;102785.72;7390819;19;20438;-63
2023/09/03 06:17:08;;;;;;;13.95;8.00;;;;;;;15.91;78.72;102785.72;7393117;19;20022;-63
2023/09/03 06:19:35;;;;;;;13.27;8.10;;;;;;;15.95;78.49;102793.47;7393219;19;20035;-63
2023/09/03 06:22:03;;;;;;;13.30;7.22;;;;;;;15.91;78.58;102796.41;7390983;19;20026;-63
2023/09/03 06:24:31;;;;;;;12.68;6.93;;;;;;;15.86;78.41;102788.69;7390684;19;20011;-63
2023/09/03 06:26:58;;;;;;;13.13;6.78;;;;;;;15.95;78.11;102781.88;7392027;19;20030;-63
2023/09/03 06:29:26;;;;;;;11.43;6.57;;;;;;;16.02;77.94;102781.38;7392133;19;20038;-63
2023/09/03 06:31:53;;;;;;;12.57;7.07;;;;;;;15.99;77.93;102778.94;7392622;19;20018;-63
2023/09/03 06:34:20;;;;;;;11.43;6.47;;;;;;;16.04;77.90;102783.97;7389872;19;20022;-63
2023/09/03 06:36:48;;;;;;;12.85;6.57;;;;;;;16.07;77.79;102791.81;7390974;19;20030;-63
2023/09/03 06:39:15;;;;;;;10.85;5.85;;;;;;;16.13;77.80;102787.88;7392195;19;20017;-63
2023/09/03 06:41:43;;;;;;;13.52;6.68;;;;;;;16.10;77.81;102788.91;7391683;19;20015;-63
2023/09/03 06:44:11;;;;;;;11.48;6.32;;;;;;;16.13;77.82;102791.41;7388414;19;20133;-63
2023/09/03 06:46:38;;;;;;;10.65;5.88;;;;;;;16.20;77.55;102803.41;7392001;19;20078;-63
2023/09/03 06:49:06;;;;;;;10.68;5.50;;;;;;;16.25;77.38;102795.94;7390999;19;20014;-63
2023/09/03 06:51:33;;;;;;;11.90;5.47;;;;;;;16.30;77.05;102793.84;7392330;19;20126;-63
2023/09/03 06:54:01;;;;;;;9.20;5.15;;;;;;;16.34;77.04;102805.19;7389982;19;20040;-63
2023/09/03 06:56:29;;;;;;;11.02;6.20;;;;;;;16.40;76.70;102809.28;7391779;19;20081;-63
2023/09/03 06:58:56;;;;;;;9.90;5.18;;;;;;;16.41;76.69;102825.25;7392641;19;20035;-63
2023/09/03 07:01:24;;;;;;;9.35;5.00;;;;;;;16.44;76.75;102825.00;7391797;19;20030;-64
2023/09/03 07:03:52;;;;;;;8.82;5.45;;;;;;;16.51;76.57;102818.31;7389397;19;20085;-63
2023/09/03 07:06:19;;;;;;;11.10;5.30;;;;;;;16.59;76.48;102815.13;7392025;19;20023;-63
2023/09/03 07:08:47;;;;;;;11.02;6.88;;;;;;;16.62;76.55;102819.44;7391983;19;20042;-63
2023/09/03 07:11:14;;;;;;;12.35;6.78;;;;;;;16.71;76.11;102817.00;7391998;19;20532;-63
2023/09/03 07:13:42;;;;;;;12.25;6.40;;;;;;;16.76;76.16;102822.94;7390203;19;20022;-63
2023/09/03 07:16:09;;;;;;;11.95;6.63;;;;;;;16.76;76.26;102833.63;7391023;19;20032;-63
2023/09/03 07:18:36;;;;;;;13.30;6.45;;;;;;;16.76;76.34;102838.13;7391364;19;20483;-63
2023/09/03 07:21:06;;;;;;;15.07;6.05;;;;;;;16.79;76.30;102838.78;7390848;19;20408;-63
2023/09/03 07:23:33;;;;;;;10.30;5.07;;;;;;;16.81;75.92;102844.88;7389563;19;20023;-63
2023/09/03 07:26:05;;;;;;;11.82;5.47;;;;;;;16.89;75.99;102849.72;7389129;19;20070;-64
2023/09/03 07:28:33;;;;;;;9.70;4.93;;;;;;;16.90;76.04;102843.41;7390166;19;20483;-63
2023/09/03 07:31:01;;;;;;;8.50;4.80;;;;;;;16.99;75.79;102844.63;7390529;19;20354;-63
2023/09/03 07:33:28;;;;;;;10.98;5.97;;;;;;;17.04;75.49;102832.63;7388777;19;20483;-63
2023/09/03 07:35:58;;;;;;;9.63;5.18;;;;;;;17.14;75.55;102832.88;7390150;19;20042;-63
2023/09/03 07:38:27;;;;;;;10.15;4.95;;;;;;;17.22;75.24;102833.22;7390639;19;20018;-63
2023/09/03 07:40:55;;;;;;;11.30;5.60;;;;;;;17.25;75.07;102830.31;7390633;19;20023;-63
2023/09/03 07:43:22;;;;;;;8.40;4.55;;;;;;;17.30;75.20;102828.19;7389192;19;20014;-63
2023/09/03 07:45:50;;;;;;;9.43;5.28;;;;;;;17.37;74.65;102823.25;7390365;19;20027;-64
2023/09/03 07:48:18;;;;;;;7.50;4.80;;;;;;;17.42;74.62;102821.09;7390089;19;20479;-63
2023/09/03 07:50:45;;;;;;;11.40;5.22;;;;;;;17.40;74.79;102827.53;7390071;19;20126;-63
2023/09/03 07:53:12;;;;;;;10.02;4.97;;;;;;;17.41;74.88;102832.78;7388737;19;20025;-63
2023/09/03 07:55:40;;;;;;;10.52;5.05;;;;;;;17.41;74.75;102831.94;7389732;19;20378;-63
2023/09/03 07:58:09;;;;;;;8.02;4.82;;;;;;;17.47;74.84;102840.38;7390385;19;20666;-63
2023/09/03 08:00:40;;;;;;;10.18;5.10;;;;;;;17.57;74.29;102837.09;7388543;19;20006;-63
2023/09/03 08:03:07;;;;;;;12.75;4.57;;;;;;;17.62;73.58;102832.25;7389380;19;20022;-63
2023/09/03 08:05:35;;;;;;;9.27;4.15;;;;;;;17.72;73.15;102844.03;7397339;19;20021;-64
2023/09/03 08:08:03;;;;;;;12.05;5.40;;;;;;;17.82;73.26;102847.81;7398463;19;20018;-63
2023/09/03 08:10:30;;;;;;;10.05;4.75;;;;;;;17.88;72.88;102857.25;7395856;19;20023;-63
2023/09/03 08:12:57;;;;;;;8.80;4.40;;;;;;;17.92;72.25;102864.94;7394865;19;20026;-63
2023/09/03 08:15:25;;;;;;;9.32;4.00;;;;;;;17.99;72.62;102866.22;7396980;19;20487;-63
2023/09/03 08:18:10;;;;;;;10.63;4.18;;;;;;;18.06;72.50;102858.63;7397959;19;20033;-63
2023/09/03 08:20:37;;;;;;;10.20;4.10;;;;;;;18.14;71.89;102866.97;7398221;19;20039;-63
2023/09/03 08:23:05;;;;;;;8.10;4.05;;;;;;;18.26;71.83;102867.91;7394441;19;20018;-63
2023/09/03 08:25:32;;;;;;;8.90;3.88;;;;;;;18.34;71.14;102868.19;7396181;19;20021;-63
2023/09/03 08:27:59;;;;;;;7.47;3.83;;;;;;;18.38;71.48;102864.31;7399902;19;20020;-64
2023/09/03 08:30:27;;;;;;;9.85;4.00;;;;;;;18.45;70.90;102862.91;7398816;19;20007;-63
2023/09/03 08:32:54;;;;;;;7.50;3.50;;;;;;;18.54;70.59;102873.91;7396027;19;20053;-63
2023/09/03 08:35:22;;;;;;;6.47;3.13;;;;;;;18.64;69.69;102865.09;7398391;19;20029;-63
2023/09/03 08:37:49;;;;;;;8.52;2.85;;;;;;;18.69;69.44;102875.47;7396503;19;20010;-62
2023/09/03 08:40:20;;;;;;;9.23;4.07;;;;;;;18.74;69.22;102881.41;7397114;19;20342;-62
2023/09/03 08:42:48;;;;;;;7.80;3.15;;;;;;;18.75;69.42;102873.22;7396262;19;20018;-63
2023/09/03 08:45:17;;;;;;;4.75;2.22;;;;;;;18.78;68.43;102866.78;7395158;19;20022;-62
2023/09/03 08:47:44;;;;;;;3.20;1.60;;;;;;;18.74;67.57;102873.34;7397026;19;20035;-63
2023/09/03 08:50:14;;;;;;;2.88;1.48;;;;;;;18.76;66.96;102874.09;7396473;19;20031;-62
2023/09/03 08:52:43;;;;;;;3.92;1.70;;;;;;;18.78;66.54;102880.22;7396275;19;20371;-63
2023/09/03 08:55:12;;;;;;;5.13;1.45;;;;;;;18.78;65.86;102877.53;7394452;19;20015;-63
2023/09/03 08:57:40;;;;;;;3.30;1.67;;;;;;;18.79;65.93;102881.06;7398036;19;20026;-63
2023/09/03 09:00:10;;;;;;;5.95;1.90;;;;;;;18.82;66.11;102879.00;7395849;19;20011;-63
2023/09/03 09:02:38;;;;;;;5.22;1.80;;;;;;;18.88;66.23;102878.53;7395145;19;20049;-63
2023/09/03 09:05:11;;;;;;;5.43;2.35;;;;;;;18.99;65.98;102873.19;7396927;19;20053;-63
2023/09/03 09:07:39;;;;;;;8.70;3.10;;;;;;;19.02;66.49;102874.81;7396720;19;20015;-64
2023/09/03 09:10:10;;;;;;;7.72;2.28;;;;;;;19.12;66.44;102880.34;7398931;19;20806;-63
2023/09/03 09:12:56;;;;;;;5.13;2.08;;;;;;;19.20;66.14;102883.31;7394077;19;20548;-63
2023/09/03 09:15:23;;;;;;;6.85;2.00;;;;;;;19.13;66.11;102885.59;7391659;19;20050;-64
2023/09/03 09:17:51;;;;;;;3.90;1.65;;;;;;;19.21;65.86;102885.88;7394586;19;20029;-62
2023/09/03 09:20:19;;;;;;;3.75;1.50;;;;;;;19.23;65.86;102888.41;7395278;19;20027;-63
2023/09/03 09:22:49;;;;;;;4.43;1.90;;;;;;;19.26;65.07;102884.66;7393649;19;20373;-60
2023/09/03 09:25:18;;;;;;;3.08;1.60;;;;;;;19.30;64.26;102889.66;7393475;19;20126;-62
2023/09/03 09:27:45;;;;;;;8.07;1.88;;;;;;;19.39;64.11;102883.59;7393462;19;20401;-63
2023/09/03 09:30:15;;;;;;;4.82;2.10;;;;;;;19.47;64.30;102891.94;7394581;19;20141;-62
2023/09/03 09:32:43;;;;;;;5.38;1.90;;;;;;;19.49;64.63;102886.41;7393027;19;20570;-65
2023/09/03 09:35:22;;;;;;;5.47;2.25;;;;;;;19.54;64.62;102892.31;7393115;19;20021;-63
2023/09/03 09:37:50;;;;;;;4.57;2.35;;;;;;;19.51;64.90;102897.91;7394482;19;20084;-62
2023/09/03 09:40:29;;;;;;;7.80;2.58;;;;;;;19.54;64.33;102900.38;7392875;19;20018;-63
2023/09/03 09:43:02;;;;;;;6.00;2.50;;;;;;;19.48;64.53;102892.78;7393194;19;20081;-62
2023/09/03 09:45:30;;;;;;;5.25;2.25;;;;;;;19.47;64.42;102893.75;7395314;19;20047;-62
2023/09/03 09:48:06;;;;;;;6.60;2.17;;;;;;;19.56;64.60;102897.56;7393693;19;20026;-63
2023/09/03 09:50:35;;;;;;;7.03;2.25;;;;;;;19.58;64.23;102892.94;7394390;19;20089;-61
2023/09/03 09:53:04;;;;;;;9.25;2.92;;;;;;;19.62;63.65;102899.81;7392769;19;20027;-63
2023/09/03 09:55:33;;;;;;;6.80;2.58;;;;;;;19.63;63.58;102909.59;7390803;19;20022;-62
2023/09/03 09:58:01;;;;;;;9.48;3.17;;;;;;;19.64;62.96;102906.75;7394166;19;20026;-63
2023/09/03 10:00:33;;;;;;;6.82;2.47;;;;;;;19.68;62.75;102912.75;7391772;19;20050;-62
2023/09/03 10:03:02;;;;;;;6.30;2.50;;;;;;;19.70;63.19;102913.50;7392483;19;20046;-63
2023/09/03 10:05:29;;;;;;;4.38;2.10;;;;;;;19.72;63.57;102914.22;7393469;19;20031;-62
2023/09/03 10:07:59;;;;;;;5.68;2.38;;;;;;;19.73;63.46;102910.59;7392661;19;20479;-63
2023/09/03 10:10:26;;;;;;;9.05;2.40;;;;;;;19.71;63.95;102912.53;7391963;19;20014;-63
2023/09/03 10:12:54;;;;;;;5.05;2.30;;;;;;;19.71;63.09;102918.75;7391217;19;20021;-63
2023/09/03 10:15:24;;;;;;;4.22;1.92;;;;;;;19.65;62.75;102924.63;7392272;19;20023;-63
2023/09/03 10:17:54;;;;;;;4.15;1.90;;;;;;;19.64;62.65;102920.19;7393598;19;20541;-63
2023/09/03 10:20:23;;;;;;;6.20;1.90;;;;;;;19.66;62.68;102931.72;7392976;19;20015;-64
2023/09/03 10:22:56;;;;;;;5.68;2.25;;;;;;;19.65;62.58;102931.81;7391704;19;20026;-62
2023/09/03 10:25:28;;;;;;;3.88;1.90;;;;;;;19.63;62.13;102937.31;7394207;19;20126;-62
2023/09/03 10:28:02;;;;;;;4.20;2.20;;;;;;;19.68;62.55;102931.56;7391846;19;20046;-62
2023/09/03 10:30:36;;;;;;;7.32;2.10;;;;;;;19.74;62.56;102932.94;7391404;19;20026;-62
2023/09/03 10:33:06;;;;;;;4.70;2.10;;;;;;;19.81;62.33;102932.34;7391759;19;20057;-62
2023/09/03 10:35:33;;;;;;;6.63;2.30;;;;;;;19.87;62.38;102931.84;7390773;19;20479;-63
2023/09/03 10:38:01;;;;;;;5.18;1.88;;;;;;;19.86;62.36;102932.84;7391997;19;20018;-62
2023/09/03 10:40:29;;;;;;;4.25;2.08;;;;;;;19.93;61.94;102931.38;7390879;19;20018;-63
2023/09/03 10:43:14;;;;;;;5.43;1.83;;;;;;;19.96;61.07;102928.47;7389804;19;20022;-64
2023/09/03 10:46:04;;;;;;;4.25;1.70;;;;;;;20.05;61.59;102931.38;7392375;19;20044;-63
2023/09/03 10:48:36;;;;;;;4.70;2.10;;;;;;;20.09;61.63;102936.41;7392189;19;20111;-63
2023/09/03 10:51:05;;;;;;;3.30;2.00;;;;;;;20.09;61.44;102932.84;7391723;19;20082;-64
2023/09/03 10:53:35;;;;;;;5.03;2.10;;;;;;;20.16;61.17;102943.00;7390145;19;20440;-63
2023/09/03 10:56:08;;;;;;;7.82;2.60;;;;;;;20.24;61.09;102939.72;7390404;19;20023;-63
2023/09/03 10:58:52;;;;;;;;;;;;;;;20.07;60.52;102930.31;7390955;19;20051;-62
2023/09/03 11:01:31;;;;;;;7.82;1.95;;;;;;;20.04;61.45;102935.91;7392016;19;19922;-63
2023/09/03 11:04:01;;;;;;;4.80;2.00;;;;;;;20.14;60.32;102933.34;7389742;19;20022;-62
2023/09/03 11:06:33;;;;;;;6.05;2.10;;;;;;;20.33;59.85;102940.78;7390391;19;20018;-63
2023/09/03 11:09:01;;;;;;;5.05;1.90;;;;;;;20.29;60.22;102934.81;7392115;19;20026;-63
2023/09/03 11:11:31;;;;;;;5.35;1.90;;;;;;;20.27;61.21;102935.91;7391548;19;20023;-63
2023/09/03 11:14:00;;;;;;;5.43;2.05;;;;;;;20.27;60.48;102938.63;7389611;19;20407;-64
2023/09/03 11:16:33;;;;;;;4.43;1.70;;;;;;;20.35;59.37;102942.41;7391285;19;20040;-63
2023/09/03 11:19:07;;;;;;;4.55;1.60;;;;;;;20.38;59.02;102946.69;7390263;19;20041;-63
2023/09/03 11:21:36;;;;;;;3.70;1.70;;;;;;;20.49;58.74;102941.31;7392266;19;20045;-63
2023/09/03 11:24:18;;;;;;;7.20;1.77;;;;;;;20.54;58.78;102944.50;7387844;19;20041;-62
2023/09/03 11:26:46;;;;;;;3.65;1.77;;;;;;;20.60;58.72;102945.81;7391138;19;20082;-62
2023/09/03 11:29:24;;;;;;;5.20;2.08;;;;;;;20.70;59.02;102952.16;7390636;19;20028;-62